Time;durP1;ratioP1;P1;durP2;ratioP2;P2;SDS_P1;SDS_P2;PMS_P1;PMS_P2;Temp;Humidity;BMP_temperature;BMP_pressure;BME280_temperature;BME280_humidity;BME280_pressure;Samples;Min_cycle;Max_cycle;Signal;HPM_P1;HPM_P2
2021/12/18 00:01:55;;;;;;;10.82;7.28;;;;;;;;;;5010670;28;20028;-76
2021/12/18 00:04:20;;;;;;;11.77;7.57;;;;;;;;;;5010443;28;20113;-76
2021/12/18 00:06:46;;;;;;;10.88;7.22;;;;;;;;;;5010557;28;20030;-76
2021/12/18 00:09:11;;;;;;;10.05;6.50;;;;;;;;;;5010249;28;20495;-76
2021/12/18 00:11:37;;;;;;;9.18;6.15;;;;;;;;;;5010449;28;20407;-76
2021/12/18 00:14:02;;;;;;;11.27;6.72;;;;;;;;;;5010112;28;20384;-76
2021/12/18 00:16:27;;;;;;;8.32;5.75;;;;;;;;;;5010218;28;20312;-76
2021/12/18 00:18:55;;;;;;;8.98;5.70;;;;;;;;;;5010052;28;20505;-76
2021/12/18 00:21:21;;;;;;;7.07;5.05;;;;;;;;;;5010222;28;20022;-76
2021/12/18 00:23:47;;;;;;;7.82;4.85;;;;;;;;;;5010202;28;20087;-76
2021/12/18 00:26:13;;;;;;;8.68;5.30;;;;;;;;;;5010235;28;20025;-76
2021/12/18 00:28:38;;;;;;;8.30;5.80;;;;;;;;;;5009918;28;20545;-76
2021/12/18 00:31:03;;;;;;;9.95;6.32;;;;;;;;;;5010575;28;20390;-76
2021/12/18 00:33:29;;;;;;;7.15;5.00;;;;;;;;;;5010112;28;20057;-76
2021/12/18 00:35:54;;;;;;;8.32;5.38;;;;;;;;;;5010059;28;20033;-76
2021/12/18 00:38:19;;;;;;;9.15;6.00;;;;;;;;;;5009841;28;20026;-76
2021/12/18 00:40:46;;;;;;;10.27;5.57;;;;;;;;;;5009979;28;20468;-76
2021/12/18 00:46:07;;;;;;;7.75;5.15;;;;;;;;;;5000883;28;20614;-76
2021/12/18 00:48:32;;;;;;;8.27;5.53;;;;;;;;;;5009831;28;20030;-76
2021/12/18 00:50:58;;;;;;;7.45;5.50;;;;;;;;;;5009822;28;20025;-75
2021/12/18 00:53:23;;;;;;;7.32;5.32;;;;;;;;;;5009842;28;20053;-74
2021/12/18 00:55:51;;;;;;;9.35;5.70;;;;;;;;;;5009968;28;20025;-75
2021/12/18 00:58:16;;;;;;;8.88;5.28;;;;;;;;;;5010060;28;20414;-74
2021/12/18 01:00:43;;;;;;;10.25;5.85;;;;;;;;;;5009899;28;20026;-74
2021/12/18 01:03:17;;;;;;;8.02;5.30;;;;;;;;;;5010136;28;20032;-73
2021/12/18 01:05:44;;;;;;;8.95;5.63;;;;;;;;;;5009682;28;20018;-74
2021/12/18 01:08:09;;;;;;;9.45;5.65;;;;;;;;;;5009701;28;20068;-75
2021/12/18 01:11:02;;;;;;;7.28;4.85;;;;;;;;;;5010024;28;20034;-74
2021/12/18 01:13:28;;;;;;;9.23;5.97;;;;;;;;;;5009514;28;20449;-75
2021/12/18 01:15:57;;;;;;;9.02;5.13;;;;;;;;;;5009953;28;20375;-74
2021/12/18 01:23:50;;;;;;;10.00;5.90;;;;;;;;;;5009887;28;20092;-75
2021/12/18 01:26:17;;;;;;;9.48;5.18;;;;;;;;;;5009219;28;20026;-74
2021/12/18 01:28:42;;;;;;;9.50;5.38;;;;;;;;;;5009323;28;20104;-75
2021/12/18 01:31:09;;;;;;;9.77;6.07;;;;;;;;;;5009606;28;20106;-74
2021/12/18 01:33:34;;;;;;;9.38;5.65;;;;;;;;;;5009573;28;20118;-75
2021/12/18 01:36:01;;;;;;;9.60;5.45;;;;;;;;;;5009215;28;20037;-75
2021/12/18 01:38:28;;;;;;;8.23;5.28;;;;;;;;;;5013279;28;20029;-74
2021/12/18 01:40:54;;;;;;;11.05;5.80;;;;;;;;;;5013231;28;20071;-74
2021/12/18 01:44:47;;;;;;;10.55;5.38;;;;;;;;;;5013235;28;20033;-73
2021/12/18 01:52:04;;;;;;;8.57;5.35;;;;;;;;;;5013695;28;20391;-75
2021/12/18 01:54:30;;;;;;;8.27;5.40;;;;;;;;;;5012858;28;20395;-75
2021/12/18 01:56:56;;;;;;;8.05;5.25;;;;;;;;;;5013065;28;20030;-74
2021/12/18 01:59:37;;;;;;;8.07;5.60;;;;;;;;;;5012642;28;20026;-73
2021/12/18 02:02:03;;;;;;;9.48;6.13;;;;;;;;;;5013079;28;20022;-74
2021/12/18 02:04:28;;;;;;;8.45;5.53;;;;;;;;;;5012564;28;20037;-74
2021/12/18 02:06:53;;;;;;;9.25;6.25;;;;;;;;;;5012787;28;20034;-75
2021/12/18 02:09:20;;;;;;;8.50;5.38;;;;;;;;;;5012644;28;20542;-75
2021/12/18 02:11:46;;;;;;;9.75;5.80;;;;;;;;;;5012782;28;20479;-74
2021/12/18 02:20:11;;;;;;;10.80;6.43;;;;;;;;;;5012719;28;20033;-74
2021/12/18 02:22:36;;;;;;;;;;;;;;;;;;5012979;28;20037;-74
2021/12/18 02:25:03;;;;;;;9.65;6.10;;;;;;;;;;5012193;28;19909;-74
2021/12/18 02:27:29;;;;;;;11.27;6.70;;;;;;;;;;5012012;28;20022;-73
2021/12/18 02:29:55;;;;;;;10.65;6.53;;;;;;;;;;5012368;28;20049;-74
2021/12/18 02:32:21;;;;;;;9.55;5.82;;;;;;;;;;5012191;28;20034;-74
2021/12/18 02:34:53;;;;;;;11.40;5.90;;;;;;;;;;5011934;28;20033;-74
2021/12/18 02:37:28;;;;;;;9.45;6.03;;;;;;;;;;5012133;28;20077;-74
2021/12/18 02:40:49;;;;;;;10.38;5.18;;;;;;;;;;5012064;28;20030;-74
2021/12/18 02:42:41;;;;;;;10.10;5.95;;;;;;;;;;5011632;28;20538;-76
2021/12/18 02:45:07;;;;;;;11.43;5.68;;;;;;;;;;5011509;28;20042;-74
2021/12/18 02:47:33;;;;;;;8.55;5.35;;;;;;;;;;5012094;28;20076;-73
2021/12/18 02:49:58;;;;;;;10.68;5.82;;;;;;;;;;5010914;28;20025;-74
2021/12/18 02:52:29;;;;;;;9.35;5.85;;;;;;;;;;5011723;28;20057;-74
2021/12/18 02:54:54;;;;;;;9.63;5.88;;;;;;;;;;5011317;28;20022;-72
2021/12/18 02:57:20;;;;;;;9.40;5.75;;;;;;;;;;5011439;28;20463;-73
2021/12/18 02:59:48;;;;;;;10.18;6.00;;;;;;;;;;5011831;28;20021;-73
2021/12/18 03:02:15;;;;;;;9.80;6.20;;;;;;;;;;5011576;28;20022;-75
2021/12/18 03:04:43;;;;;;;9.30;5.43;;;;;;;;;;5011360;28;20076;-74
2021/12/18 03:07:11;;;;;;;9.85;5.20;;;;;;;;;;5011845;28;20475;-74
2021/12/18 03:19:04;;;;;;;10.90;6.30;;;;;;;;;;5011419;28;20029;-73
2021/12/18 03:23:46;;;;;;;9.15;5.80;;;;;;;;;;5011267;28;20503;-73
2021/12/18 03:26:13;;;;;;;9.65;5.63;;;;;;;;;;5010813;28;20033;-73
2021/12/18 03:28:39;;;;;;;10.30;5.78;;;;;;;;;;5011156;28;20530;-73
2021/12/18 03:31:04;;;;;;;8.98;5.32;;;;;;;;;;5011035;28;20269;-73
2021/12/18 03:33:30;;;;;;;9.27;5.93;;;;;;;;;;5011525;28;20041;-74
2021/12/18 03:35:56;;;;;;;10.05;5.85;;;;;;;;;;5010623;28;20120;-74
2021/12/18 03:38:21;;;;;;;11.50;6.28;;;;;;;;;;5010726;28;20173;-74
2021/12/18 03:40:47;;;;;;;11.73;6.28;;;;;;;;;;5010722;28;20464;-73
2021/12/18 03:43:12;;;;;;;11.00;6.47;;;;;;;;;;5011233;28;20037;-72
2021/12/18 03:45:38;;;;;;;12.75;6.35;;;;;;;;;;5010458;28;20439;-73
2021/12/18 03:48:03;;;;;;;10.43;5.60;;;;;;;;;;5010564;28;20091;-73
2021/12/18 03:50:29;;;;;;;10.52;6.63;;;;;;;;;;5010512;28;20468;-73
2021/12/18 03:52:55;;;;;;;10.40;6.18;;;;;;;;;;5010576;28;20040;-73
2021/12/18 03:55:21;;;;;;;10.43;6.30;;;;;;;;;;5010520;28;20022;-73
2021/12/18 03:57:46;;;;;;;8.43;6.03;;;;;;;;;;5010413;28;20584;-73
2021/12/18 04:00:14;;;;;;;11.40;6.28;;;;;;;;;;5009787;28;20108;-73
2021/12/18 04:02:41;;;;;;;8.77;5.57;;;;;;;;;;5010342;28;20026;-73
2021/12/18 04:05:07;;;;;;;9.98;5.70;;;;;;;;;;5010124;28;20412;-71
2021/12/18 04:07:40;;;;;;;9.57;5.75;;;;;;;;;;5010664;28;20121;-72
2021/12/18 04:10:06;;;;;;;9.20;6.03;;;;;;;;;;5010446;28;20344;-73
2021/12/18 04:12:31;;;;;;;10.75;6.63;;;;;;;;;;5010306;28;20036;-73
2021/12/18 04:14:57;;;;;;;9.43;6.18;;;;;;;;;;5009903;28;20022;-73
2021/12/18 04:17:22;;;;;;;9.45;6.03;;;;;;;;;;5010318;28;20029;-73
2021/12/18 04:19:47;;;;;;;7.72;5.25;;;;;;;;;;5010230;28;20391;-73
2021/12/18 04:22:13;;;;;;;11.32;5.60;;;;;;;;;;5010106;28;20075;-73
2021/12/18 04:24:38;;;;;;;10.15;5.68;;;;;;;;;;5009970;28;20179;-73
2021/12/18 04:27:03;;;;;;;11.18;6.65;;;;;;;;;;5008592;28;20018;-73
2021/12/18 04:29:28;;;;;;;11.00;6.28;;;;;;;;;;5010501;28;20049;-73
2021/12/18 04:31:54;;;;;;;10.93;6.82;;;;;;;;;;5009895;28;20030;-73
2021/12/18 04:34:19;;;;;;;9.52;6.28;;;;;;;;;;5009846;28;20149;-73
2021/12/18 04:36:44;;;;;;;10.77;6.45;;;;;;;;;;5010014;28;20029;-73
2021/12/18 04:39:10;;;;;;;9.38;5.82;;;;;;;;;;5010015;28;20084;-73
2021/12/18 04:41:57;;;;;;;12.50;6.45;;;;;;;;;;5009893;28;20497;-73
2021/12/18 04:44:23;;;;;;;11.15;6.80;;;;;;;;;;5009794;28;20113;-74
2021/12/18 04:46:49;;;;;;;10.88;7.05;;;;;;;;;;5009517;28;20116;-74
2021/12/18 04:49:14;;;;;;;11.43;7.47;;;;;;;;;;5009890;28;20026;-72
2021/12/18 04:51:39;;;;;;;11.23;6.28;;;;;;;;;;5009687;28;20026;-74
2021/12/18 04:54:05;;;;;;;12.18;8.20;;;;;;;;;;5009650;28;20105;-73
2021/12/18 04:56:30;;;;;;;13.50;7.88;;;;;;;;;;5008235;28;20049;-73
2021/12/18 04:58:55;;;;;;;11.75;6.50;;;;;;;;;;5009648;28;20022;-73
2021/12/18 05:01:21;;;;;;;12.32;7.50;;;;;;;;;;5009579;28;20026;-73
2021/12/18 05:03:49;;;;;;;10.77;6.55;;;;;;;;;;5009660;28;20025;-73
2021/12/18 05:06:14;;;;;;;12.40;6.35;;;;;;;;;;5009238;28;20475;-73
2021/12/18 05:08:40;;;;;;;9.82;6.18;;;;;;;;;;5009592;28;20117;-73
2021/12/18 05:11:05;;;;;;;8.90;5.93;;;;;;;;;;5009576;28;20108;-73
2021/12/18 05:13:30;;;;;;;9.85;5.57;;;;;;;;;;5013504;28;20065;-73
2021/12/18 05:15:56;;;;;;;9.48;5.45;;;;;;;;;;5013273;28;20057;-73
2021/12/18 05:18:21;;;;;;;8.32;5.88;;;;;;;;;;5013570;28;20030;-72
2021/12/18 05:20:46;;;;;;;9.70;5.38;;;;;;;;;;5013659;28;20430;-73
2021/12/18 05:23:12;;;;;;;8.80;5.15;;;;;;;;;;5013808;28;20054;-72
2021/12/18 05:25:37;;;;;;;11.98;5.57;;;;;;;;;;5013138;28;20068;-73
2021/12/18 05:28:03;;;;;;;10.05;5.90;;;;;;;;;;5013461;28;20042;-73
2021/12/18 05:30:28;;;;;;;10.40;5.50;;;;;;;;;;5013805;28;20127;-72
2021/12/18 05:32:53;;;;;;;9.75;5.18;;;;;;;;;;5012131;28;20026;-73
2021/12/18 05:35:19;;;;;;;8.10;5.07;;;;;;;;;;5013134;28;20072;-74
2021/12/18 05:37:52;;;;;;;48.08;22.08;;;;;;;;;;5013137;28;20041;-71
2021/12/18 05:40:21;;;;;;;9.95;5.70;;;;;;;;;;5013217;28;20025;-73
2021/12/18 05:42:48;;;;;;;9.40;5.70;;;;;;;;;;5013002;28;20038;-73
2021/12/18 05:45:13;;;;;;;9.52;6.28;;;;;;;;;;5012826;28;20041;-73
2021/12/18 05:47:39;;;;;;;10.48;5.50;;;;;;;;;;5012984;28;20022;-74
2021/12/18 05:50:06;;;;;;;9.57;5.60;;;;;;;;;;5013265;28;20018;-71
2021/12/18 05:52:32;;;;;;;9.02;5.30;;;;;;;;;;5012742;28;20036;-74
2021/12/18 05:54:57;;;;;;;7.57;4.68;;;;;;;;;;5012707;28;20022;-73
2021/12/18 05:57:23;;;;;;;10.30;5.70;;;;;;;;;;5012754;28;20061;-73
2021/12/18 05:59:48;;;;;;;7.75;4.65;;;;;;;;;;5013147;28;20025;-72
2021/12/18 06:02:14;;;;;;;10.65;5.55;;;;;;;;;;5012772;28;20033;-73
2021/12/18 06:04:39;;;;;;;10.02;6.10;;;;;;;;;;5012956;28;20395;-73
2021/12/18 06:07:05;;;;;;;9.52;5.32;;;;;;;;;;5013116;28;20534;-73
2021/12/18 06:09:35;;;;;;;8.48;5.15;;;;;;;;;;5013343;28;20097;-73
2021/12/18 06:12:03;;;;;;;8.40;4.70;;;;;;;;;;5012934;28;20029;-74
2021/12/18 06:14:29;;;;;;;9.80;5.65;;;;;;;;;;5012426;28;20052;-73
2021/12/18 06:16:55;;;;;;;10.23;4.72;;;;;;;;;;5012659;28;20483;-73
2021/12/18 06:19:20;;;;;;;9.75;5.50;;;;;;;;;;5012898;28;20030;-73
2021/12/18 06:21:46;;;;;;;9.18;5.10;;;;;;;;;;5012279;28;20018;-73
2021/12/18 06:24:11;;;;;;;8.50;5.03;;;;;;;;;;5011900;28;20029;-73
2021/12/18 06:26:37;;;;;;;10.40;5.97;;;;;;;;;;5012471;28;20030;-73
2021/12/18 06:29:02;;;;;;;8.02;5.25;;;;;;;;;;5012424;28;20022;-73
2021/12/18 06:31:29;;;;;;;7.72;4.65;;;;;;;;;;5012492;28;20145;-74
2021/12/18 06:33:54;;;;;;;9.13;4.43;;;;;;;;;;5012061;28;20030;-73
2021/12/18 06:36:19;;;;;;;9.75;4.95;;;;;;;;;;5012073;28;20036;-72
2021/12/18 06:38:45;;;;;;;9.90;5.05;;;;;;;;;;5011862;28;20046;-73
2021/12/18 06:41:10;;;;;;;8.48;5.00;;;;;;;;;;5011857;28;20029;-74
2021/12/18 06:43:35;;;;;;;8.18;5.40;;;;;;;;;;5011634;28;20395;-72
2021/12/18 06:46:00;;;;;;;8.77;5.55;;;;;;;;;;5011239;28;20487;-74
2021/12/18 06:48:26;;;;;;;8.77;5.05;;;;;;;;;;5011603;28;20242;-72
2021/12/18 06:50:51;;;;;;;8.07;4.97;;;;;;;;;;5011804;28;20061;-73
2021/12/18 06:53:17;;;;;;;9.57;4.85;;;;;;;;;;5011557;28;20052;-73
2021/12/18 06:55:43;;;;;;;9.10;5.22;;;;;;;;;;5011429;28;20021;-74
2021/12/18 06:58:08;;;;;;;6.88;4.28;;;;;;;;;;5011701;28;20022;-74
2021/12/18 07:00:33;;;;;;;10.75;5.45;;;;;;;;;;5011792;28;20353;-72
2021/12/18 07:02:59;;;;;;;8.02;5.03;;;;;;;;;;5011491;28;20068;-71
2021/12/18 07:05:25;;;;;;;8.25;4.93;;;;;;;;;;5011393;28;20057;-73
2021/12/18 07:07:51;;;;;;;9.13;5.03;;;;;;;;;;5011507;28;20029;-74
2021/12/18 07:10:16;;;;;;;8.80;5.20;;;;;;;;;;5011577;28;20025;-72
2021/12/18 07:12:42;;;;;;;11.35;5.68;;;;;;;;;;5011423;28;20553;-73
2021/12/18 07:15:09;;;;;;;11.20;5.38;;;;;;;;;;5011411;28;20387;-73
2021/12/18 07:17:35;;;;;;;9.00;5.28;;;;;;;;;;5009990;28;20022;-73
2021/12/18 07:20:00;;;;;;;10.13;6.45;;;;;;;;;;5011526;28;20030;-73
2021/12/18 07:22:26;;;;;;;9.30;5.90;;;;;;;;;;5011368;28;20117;-73
2021/12/18 07:24:51;;;;;;;10.93;6.18;;;;;;;;;;5010956;28;20030;-74
2021/12/18 07:27:16;;;;;;;10.25;6.28;;;;;;;;;;5011156;28;20471;-73
2021/12/18 07:29:42;;;;;;;10.25;6.97;;;;;;;;;;5011197;28;20044;-73
2021/12/18 07:32:08;;;;;;;9.65;6.50;;;;;;;;;;5011112;28;20030;-75
2021/12/18 07:34:35;;;;;;;14.95;6.88;;;;;;;;;;5008803;28;20030;-75
2021/12/18 07:37:00;;;;;;;12.38;6.95;;;;;;;;;;5009757;28;20022;-75
2021/12/18 07:39:26;;;;;;;10.75;6.93;;;;;;;;;;5011104;28;20026;-75
2021/12/18 07:41:51;;;;;;;13.05;8.02;;;;;;;;;;5010740;28;20034;-75
2021/12/18 07:44:16;;;;;;;14.05;7.35;;;;;;;;;;5010411;28;20030;-75
2021/12/18 07:46:41;;;;;;;11.80;7.35;;;;;;;;;;5010493;28;20507;-76
2021/12/18 07:49:08;;;;;;;11.93;6.68;;;;;;;;;;5010539;28;20153;-74
2021/12/18 07:51:34;;;;;;;10.93;6.72;;;;;;;;;;5010651;28;20496;-75
2021/12/18 07:53:59;;;;;;;9.40;5.95;;;;;;;;;;5010225;28;20038;-74
2021/12/18 07:56:25;;;;;;;10.57;6.13;;;;;;;;;;5010542;28;20451;-75
2021/12/18 07:58:51;;;;;;;9.18;5.57;;;;;;;;;;5010546;28;20030;-76
2021/12/18 08:01:16;;;;;;;12.70;6.68;;;;;;;;;;5010643;28;20515;-75
2021/12/18 08:03:42;;;;;;;9.90;5.60;;;;;;;;;;5010550;28;20026;-75
2021/12/18 08:06:07;;;;;;;9.70;5.75;;;;;;;;;;5010258;28;20479;-75
2021/12/18 08:08:32;;;;;;;11.00;6.53;;;;;;;;;;5010401;28;20502;-75
2021/12/18 08:10:58;;;;;;;10.45;5.95;;;;;;;;;;5010689;28;20514;-75
2021/12/18 08:13:24;;;;;;;10.93;6.35;;;;;;;;;;5010325;28;20084;-75
2021/12/18 08:15:49;;;;;;;10.60;6.05;;;;;;;;;;5010309;28;20033;-75
2021/12/18 08:18:14;;;;;;;14.60;10.40;;;;;;;;;;5010294;28;20443;-75
2021/12/18 08:20:40;;;;;;;16.17;8.98;;;;;;;;;;5010364;28;20025;-74
2021/12/18 08:23:06;;;;;;;18.08;8.70;;;;;;;;;;5009982;28;20486;-75
2021/12/18 08:25:32;;;;;;;13.40;7.57;;;;;;;;;;5010005;28;20049;-74
2021/12/18 08:28:00;;;;;;;17.27;7.60;;;;;;;;;;5010058;28;20026;-75
2021/12/18 08:30:27;;;;;;;13.55;7.50;;;;;;;;;;5010214;28;20037;-75
2021/12/18 08:32:52;;;;;;;17.65;9.02;;;;;;;;;;5009968;28;20061;-74
2021/12/18 08:35:18;;;;;;;16.27;8.43;;;;;;;;;;5009738;28;20060;-75
2021/12/18 08:37:43;;;;;;;15.65;8.98;;;;;;;;;;5009822;28;20030;-74
2021/12/18 08:40:09;;;;;;;17.40;9.23;;;;;;;;;;5009981;28;20025;-75
2021/12/18 08:42:35;;;;;;;15.00;9.50;;;;;;;;;;5009960;28;20108;-76
2021/12/18 08:45:00;;;;;;;17.50;9.85;;;;;;;;;;5009543;28;20025;-75
2021/12/18 08:47:26;;;;;;;15.85;9.27;;;;;;;;;;5009404;28;20488;-75
2021/12/18 08:49:52;;;;;;;16.45;9.68;;;;;;;;;;5009790;28;20041;-76
2021/12/18 08:52:18;;;;;;;17.88;10.23;;;;;;;;;;5009845;28;20127;-75
2021/12/18 08:54:44;;;;;;;19.08;10.63;;;;;;;;;;5009546;28;20484;-76
2021/12/18 08:57:09;;;;;;;17.08;10.10;;;;;;;;;;5010069;28;20092;-75
2021/12/18 08:59:36;;;;;;;17.50;9.70;;;;;;;;;;5009539;28;20026;-75
2021/12/18 09:02:02;;;;;;;126.43;62.72;;;;;;;;;;5009787;28;20491;-75
2021/12/18 09:04:28;;;;;;;176.07;72.10;;;;;;;;;;5009304;28;20109;-75
2021/12/18 09:06:53;;;;;;;43.90;18.90;;;;;;;;;;5009772;28;20472;-75
2021/12/18 09:09:18;;;;;;;36.35;19.13;;;;;;;;;;5008232;28;20053;-76
2021/12/18 09:11:44;;;;;;;27.30;15.30;;;;;;;;;;5009978;28;20037;-75
2021/12/18 09:14:09;;;;;;;20.25;13.70;;;;;;;;;;5009419;28;20096;-76
2021/12/18 09:16:34;;;;;;;17.13;10.40;;;;;;;;;;5009534;28;20030;-75
2021/12/18 09:18:59;;;;;;;15.73;8.93;;;;;;;;;;5009397;28;20081;-74
2021/12/18 09:21:25;;;;;;;17.50;9.88;;;;;;;;;;5009456;28;20022;-74
2021/12/18 09:23:50;;;;;;;13.55;7.50;;;;;;;;;;5009588;28;20048;-76
2021/12/18 09:26:16;;;;;;;20.10;11.63;;;;;;;;;;5009337;28;20080;-75
2021/12/18 09:28:41;;;;;;;18.17;9.98;;;;;;;;;;5009318;28;20084;-74
2021/12/18 09:31:06;;;;;;;18.23;10.50;;;;;;;;;;5009436;28;20041;-74
2021/12/18 09:33:32;;;;;;;16.20;9.90;;;;;;;;;;5009183;28;20030;-74
2021/12/18 09:35:57;;;;;;;14.05;8.18;;;;;;;;;;5007743;28;20061;-74
2021/12/18 09:38:23;;;;;;;15.40;9.02;;;;;;;;;;5007897;28;20129;-74
2021/12/18 09:40:48;;;;;;;14.05;7.80;;;;;;;;;;5009316;28;20499;-74
2021/12/18 09:43:14;;;;;;;13.60;7.82;;;;;;;;;;5009573;28;20041;-75
2021/12/18 09:45:41;;;;;;;19.92;11.73;;;;;;;;;;5008907;28;20137;-74
2021/12/18 09:48:06;;;;;;;17.45;9.20;;;;;;;;;;5009298;28;20101;-73
2021/12/18 09:50:35;;;;;;;21.00;12.00;;;;;;;;;;5009020;28;20472;-75
2021/12/18 09:53:01;;;;;;;20.23;12.05;;;;;;;;;;5009267;28;20040;-75
2021/12/18 09:55:26;;;;;;;24.25;14.52;;;;;;;;;;5008795;28;20472;-74
2021/12/18 09:57:51;;;;;;;25.15;13.73;;;;;;;;;;5010297;28;20064;-75
2021/12/18 10:00:21;;;;;;;15.55;8.10;;;;;;;;;;5012726;28;20037;-74
2021/12/18 10:02:47;;;;;;;15.88;8.77;;;;;;;;;;5012511;28;20025;-74
2021/12/18 10:05:32;;;;;;;15.63;9.27;;;;;;;;;;5012438;28;20096;-74
2021/12/18 10:08:04;;;;;;;17.02;9.57;;;;;;;;;;5012878;28;20448;-74
2021/12/18 10:10:29;;;;;;;16.98;8.85;;;;;;;;;;5012801;28;20029;-75
2021/12/18 10:13:03;;;;;;;16.05;8.38;;;;;;;;;;5012634;28;20387;-75
2021/12/18 10:15:28;;;;;;;17.50;8.27;;;;;;;;;;5010739;28;20076;-74
2021/12/18 10:18:04;;;;;;;15.80;8.20;;;;;;;;;;5012700;28;20029;-74
2021/12/18 10:20:30;;;;;;;19.65;10.23;;;;;;;;;;5010548;28;20021;-73
2021/12/18 10:22:58;;;;;;;14.52;7.88;;;;;;;;;;4998586;28;20054;-74
2021/12/18 10:25:31;;;;;;;18.02;10.02;;;;;;;;;;4992392;28;20053;-73
2021/12/18 10:28:10;;;;;;;15.98;10.10;;;;;;;;;;5007949;28;20479;-73
2021/12/18 10:30:43;;;;;;;15.50;8.85;;;;;;;;;;5012294;28;20044;-74
2021/12/18 10:33:11;;;;;;;17.58;9.70;;;;;;;;;;5013018;28;20022;-74
2021/12/18 10:35:50;;;;;;;20.77;12.75;;;;;;;;;;5011909;28;20037;-73
2021/12/18 10:38:55;;;;;;;16.42;9.02;;;;;;;;;;5012402;28;20028;-74
2021/12/18 10:41:30;;;;;;;18.30;8.90;;;;;;;;;;4949833;29;20027;-73
2021/12/18 10:43:59;;;;;;;18.92;8.95;;;;;;;;;;4950935;29;20545;-73
2021/12/18 10:46:26;;;;;;;14.85;7.93;;;;;;;;;;4984369;28;20085;-74
2021/12/18 10:49:12;;;;;;;13.27;7.60;;;;;;;;;;5011863;28;20484;-74
2021/12/18 10:51:39;;;;;;;13.27;6.95;;;;;;;;;;5011832;28;20038;-73
2021/12/18 10:54:16;;;;;;;12.05;7.10;;;;;;;;;;5011744;28;20553;-73
2021/12/18 10:56:45;;;;;;;11.15;6.05;;;;;;;;;;5011575;28;20121;-74
2021/12/18 10:59:31;;;;;;;11.32;6.22;;;;;;;;;;5012000;28;20101;-74
2021/12/18 11:02:11;;;;;;;11.18;6.05;;;;;;;;;;5011509;28;20026;-74
2021/12/18 11:04:39;;;;;;;8.90;5.30;;;;;;;;;;5011453;28;20101;-74
2021/12/18 11:07:29;;;;;;;8.50;5.07;;;;;;;;;;5011612;28;20046;-75
2021/12/18 11:10:14;;;;;;;8.30;4.80;;;;;;;;;;5010291;28;20538;-73
2021/12/18 11:15:25;;;;;;;12.25;6.30;;;;;;;;;;5011497;28;20036;-74
2021/12/18 11:17:52;;;;;;;11.63;5.68;;;;;;;;;;5011180;28;20022;-74
2021/12/18 11:20:19;;;;;;;11.48;6.28;;;;;;;;;;5010945;28;20033;-73
2021/12/18 11:22:44;;;;;;;13.38;7.18;;;;;;;;;;5011396;28;20026;-74
2021/12/18 11:25:11;;;;;;;28.70;14.15;;;;;;;;;;5011027;28;20376;-73
2021/12/18 11:27:38;;;;;;;47.10;20.10;;;;;;;;;;5011389;28;20026;-74
2021/12/18 11:30:13;;;;;;;24.25;10.90;;;;;;;;;;5010946;28;20503;-73
2021/12/18 11:32:43;;;;;;;44.85;20.02;;;;;;;;;;5011016;28;20030;-74
2021/12/18 11:35:14;;;;;;;23.02;12.18;;;;;;;;;;5010891;28;20396;-73
2021/12/18 11:37:41;;;;;;;21.02;12.63;;;;;;;;;;5011103;28;20030;-74
2021/12/18 11:40:10;;;;;;;9.95;5.80;;;;;;;;;;5010898;28;20072;-74
2021/12/18 11:42:36;;;;;;;9.35;5.00;;;;;;;;;;5011493;28;20030;-73
2021/12/18 11:45:04;;;;;;;8.23;4.93;;;;;;;;;;5010259;28;20056;-74
2021/12/18 11:47:31;;;;;;;6.85;4.90;;;;;;;;;;5010763;28;20049;-73
2021/12/18 11:50:05;;;;;;;11.75;6.78;;;;;;;;;;5010832;28;20502;-73
2021/12/18 11:52:55;;;;;;;9.57;5.57;;;;;;;;;;5010841;28;20038;-74
2021/12/18 11:55:21;;;;;;;12.23;6.32;;;;;;;;;;5010624;28;20129;-73
2021/12/18 11:57:50;;;;;;;12.10;5.97;;;;;;;;;;5010689;28;20037;-74
2021/12/18 12:00:31;;;;;;;17.88;9.43;;;;;;;;;;5010540;28;20076;-74
2021/12/18 12:02:58;;;;;;;15.70;8.02;;;;;;;;;;5010725;28;20049;-73
2021/12/18 12:05:44;;;;;;;19.90;11.32;;;;;;;;;;5010110;28;20029;-73
2021/12/18 12:08:22;;;;;;;16.30;8.68;;;;;;;;;;5010382;28;20028;-73
2021/12/18 12:11:27;;;;;;;16.33;8.52;;;;;;;;;;5010386;28;20041;-73
2021/12/18 12:14:02;;;;;;;18.63;9.98;;;;;;;;;;4949345;29;20035;-74
2021/12/18 12:17:08;;;;;;;24.45;10.57;;;;;;;;;;4949233;28;20764;-74
2021/12/18 12:19:33;;;;;;;20.17;9.82;;;;;;;;;;4998583;28;20060;-74
2021/12/18 12:21:58;;;;;;;17.60;9.20;;;;;;;;;;5009978;28;20030;-74
2021/12/18 12:24:26;;;;;;;19.33;10.05;;;;;;;;;;5010104;28;20525;-74
2021/12/18 12:26:53;;;;;;;16.63;8.73;;;;;;;;;;5009979;28;20435;-74
2021/12/18 12:29:20;;;;;;;18.27;9.93;;;;;;;;;;5010220;28;20551;-74
2021/12/18 12:32:01;;;;;;;13.07;7.57;;;;;;;;;;5010130;28;20025;-73
2021/12/18 12:34:33;;;;;;;12.52;7.68;;;;;;;;;;5010091;28;20025;-74
2021/12/18 12:37:23;;;;;;;19.52;13.60;;;;;;;;;;5009731;28;20105;-74
2021/12/18 12:39:57;;;;;;;14.35;8.48;;;;;;;;;;5009924;28;20022;-74
2021/12/18 12:42:22;;;;;;;;;;;;;;;;;;5010241;28;20025;-74
2021/12/18 12:44:56;;;;;;;24.58;17.20;;;;;;;;;;5009808;28;19924;-74
2021/12/18 12:47:24;;;;;;;24.13;17.17;;;;;;;;;;5009669;28;20156;-75
2021/12/18 12:50:11;;;;;;;19.33;14.27;;;;;;;;;;5010037;28;20506;-74
2021/12/18 12:52:54;;;;;;;14.10;9.32;;;;;;;;;;5009934;28;20034;-73
2021/12/18 12:55:22;;;;;;;11.05;6.38;;;;;;;;;;5009767;28;20018;-74
2021/12/18 12:57:55;;;;;;;11.18;6.40;;;;;;;;;;5008288;28;20041;-74
2021/12/18 13:00:26;;;;;;;8.98;5.95;;;;;;;;;;5009862;28;20504;-74
2021/12/18 13:02:55;;;;;;;7.97;5.20;;;;;;;;;;5009859;28;20026;-74
2021/12/18 13:05:22;;;;;;;11.43;6.72;;;;;;;;;;5009467;28;20407;-74
2021/12/18 13:07:50;;;;;;;11.80;7.75;;;;;;;;;;5009600;28;20346;-74
2021/12/18 13:10:28;;;;;;;11.15;5.78;;;;;;;;;;5009728;28;20072;-73
2021/12/18 13:12:59;;;;;;;8.57;5.25;;;;;;;;;;5009552;28;20026;-74
2021/12/18 13:15:25;;;;;;;9.50;5.82;;;;;;;;;;5009302;28;20030;-73
2021/12/18 13:18:08;;;;;;;10.25;5.38;;;;;;;;;;5009343;28;20532;-74
2021/12/18 13:21:07;;;;;;;11.05;6.72;;;;;;;;;;5009536;28;20476;-73
2021/12/18 13:23:38;;;;;;;9.25;6.20;;;;;;;;;;5009360;28;20415;-74
2021/12/18 13:26:30;;;;;;;8.35;5.10;;;;;;;;;;5009104;28;20037;-74
2021/12/18 13:29:09;;;;;;;10.13;5.78;;;;;;;;;;5007711;28;20022;-73
2021/12/18 13:31:43;;;;;;;6.80;5.30;;;;;;;;;;5008040;28;20253;-74
2021/12/18 13:34:11;;;;;;;9.38;6.03;;;;;;;;;;5011840;28;20443;-73
2021/12/18 13:36:52;;;;;;;6.65;4.68;;;;;;;;;;5011956;28;20246;-74
2021/12/18 13:39:24;;;;;;;8.05;4.75;;;;;;;;;;5012294;28;20483;-74
2021/12/18 13:42:05;;;;;;;10.75;5.10;;;;;;;;;;5012620;28;20026;-74
2021/12/18 13:45:00;;;;;;;8.95;5.28;;;;;;;;;;5011727;28;20108;-76
2021/12/18 13:47:32;;;;;;;7.90;4.88;;;;;;;;;;5013180;28;20033;-73
2021/12/18 13:50:19;;;;;;;7.60;5.40;;;;;;;;;;5013000;28;20029;-75
2021/12/18 13:52:54;;;;;;;13.52;8.27;;;;;;;;;;5013148;28;20025;-73
2021/12/18 13:55:28;;;;;;;11.95;7.80;;;;;;;;;;5012669;28;20105;-74
2021/12/18 13:58:01;;;;;;;13.38;9.65;;;;;;;;;;5012847;28;20022;-74
2021/12/18 14:00:27;;;;;;;10.55;6.82;;;;;;;;;;5012843;28;20107;-74
2021/12/18 14:02:52;;;;;;;11.07;6.95;;;;;;;;;;5012995;28;20049;-74
2021/12/18 14:05:18;;;;;;;12.40;7.90;;;;;;;;;;5012599;28;20029;-74
2021/12/18 14:07:44;;;;;;;10.63;7.15;;;;;;;;;;5012736;28;20084;-75
2021/12/18 14:10:10;;;;;;;16.52;9.80;;;;;;;;;;5012716;28;20022;-74
2021/12/18 14:12:36;;;;;;;13.10;7.75;;;;;;;;;;5012458;28;20030;-74
2021/12/18 14:15:01;;;;;;;11.63;7.60;;;;;;;;;;5012279;28;20391;-74
2021/12/18 14:17:27;;;;;;;11.02;6.80;;;;;;;;;;5012477;28;20030;-74
2021/12/18 14:19:53;;;;;;;10.90;6.72;;;;;;;;;;5012740;28;20030;-74
2021/12/18 14:22:24;;;;;;;10.48;6.15;;;;;;;;;;5010910;28;20034;-74
2021/12/18 14:24:59;;;;;;;9.30;5.28;;;;;;;;;;5012259;28;20030;-74
2021/12/18 14:27:38;;;;;;;7.53;4.88;;;;;;;;;;5012318;28;20461;-75
2021/12/18 14:30:23;;;;;;;9.23;5.55;;;;;;;;;;5010991;28;20510;-74
2021/12/18 14:32:52;;;;;;;7.35;5.00;;;;;;;;;;5011976;28;20125;-74
2021/12/18 14:35:18;;;;;;;9.00;5.10;;;;;;;;;;5012209;28;20268;-74
2021/12/18 14:37:48;;;;;;;9.20;5.03;;;;;;;;;;5012639;28;20516;-74
2021/12/18 14:40:19;;;;;;;7.32;5.10;;;;;;;;;;5012809;28;20507;-74
2021/12/18 14:42:58;;;;;;;9.07;5.32;;;;;;;;;;5012112;28;20076;-74
2021/12/18 14:45:29;;;;;;;8.15;5.57;;;;;;;;;;5012126;28;20022;-74
2021/12/18 14:48:00;;;;;;;10.45;5.22;;;;;;;;;;5010653;28;20622;-74
2021/12/18 14:50:27;;;;;;;10.68;5.80;;;;;;;;;;5011780;28;20420;-73
2021/12/18 14:53:12;;;;;;;9.15;5.28;;;;;;;;;;5011766;28;20224;-74
2021/12/18 14:55:43;;;;;;;9.00;5.53;;;;;;;;;;5011573;28;20224;-74
2021/12/18 14:58:23;;;;;;;13.23;9.00;;;;;;;;;;5011954;28;20030;-73
2021/12/18 15:00:51;;;;;;;14.13;7.38;;;;;;;;;;5011739;28;20101;-74
2021/12/18 15:03:44;;;;;;;15.70;8.93;;;;;;;;;;5011385;28;20507;-74
2021/12/18 15:06:27;;;;;;;12.43;7.97;;;;;;;;;;5011154;28;20034;-74
2021/12/18 15:09:13;;;;;;;12.23;8.02;;;;;;;;;;5011368;28;20376;-73
2021/12/18 15:11:41;;;;;;;10.15;6.53;;;;;;;;;;5011451;28;20327;-74
2021/12/18 15:14:24;;;;;;;15.48;8.48;;;;;;;;;;5009673;28;20072;-74
2021/12/18 15:16:55;;;;;;;15.18;7.88;;;;;;;;;;5011492;28;20112;-74
2021/12/18 15:19:23;;;;;;;13.32;7.80;;;;;;;;;;5010200;28;20041;-74